createdAt,value
2022-10-03T00:02:41.856Z,344.98
2022-10-03T00:05:36.212Z,351.00
2022-10-03T00:08:39.995Z,342.27
2022-10-03T00:11:21.716Z,347.55
2022-10-03T00:13:48.233Z,327.23
2022-10-03T00:16:36.538Z,333.80
2022-10-03T00:19:40.830Z,325.75
2022-10-03T00:22:28.913Z,333.27
2022-10-03T00:25:16.941Z,330.77
2022-10-03T00:27:54.233Z,342.83
2022-10-03T00:30:25.093Z,341.17
2022-10-03T00:33:03.193Z,335.80
2022-10-03T00:35:54.131Z,353.38
2022-10-03T00:38:54.987Z,348.67
2022-10-03T00:41:46.290Z,353.77
2022-10-03T00:44:19.032Z,340.50
2022-10-03T00:47:00.240Z,357.63
2022-10-03T00:49:50.050Z,364.00
2022-10-03T00:52:44.506Z,356.50
2022-10-03T00:55:55.186Z,363.40
2022-10-03T00:58:30.938Z,364.73
2022-10-03T01:01:20.807Z,359.33
2022-10-03T01:04:00.818Z,347.60
2022-10-03T01:06:52.074Z,345.17
2022-10-03T01:09:36.834Z,365.30
2022-10-03T01:12:39.023Z,352.40
2022-10-03T01:15:08.551Z,342.13
2022-10-03T01:17:48.028Z,355.80
2022-10-03T01:20:20.405Z,347.80
2022-10-03T01:23:14.925Z,352.10
2022-10-03T01:26:04.809Z,339.48
2022-10-03T01:28:55.737Z,355.98
2022-10-03T01:31:52.798Z,359.92
2022-10-03T01:34:48.429Z,347.73
2022-10-03T01:37:29.481Z,351.03
2022-10-03T01:40:08.857Z,346.73
2022-10-03T01:42:39.055Z,343.15
2022-10-03T01:45:15.248Z,352.73
2022-10-03T01:47:51.443Z,351.55
2022-10-03T01:50:17.981Z,335.27
2022-10-03T01:53:04.639Z,352.55
2022-10-03T01:55:48.744Z,355.58
2022-10-03T01:58:29.364Z,357.92
2022-10-03T02:01:07.401Z,351.70
2022-10-03T02:03:47.276Z,343.48
2022-10-03T02:06:17.429Z,353.52
2022-10-03T02:08:55.299Z,369.17
2022-10-03T02:12:05.075Z,356.65
2022-10-03T02:14:34.662Z,362.63
2022-10-03T02:17:30.700Z,349.95
2022-10-03T02:20:08.679Z,361.23
2022-10-03T02:22:42.622Z,361.00
2022-10-03T02:25:24.409Z,353.23
2022-10-03T02:28:11.983Z,353.67
2022-10-03T02:31:15.873Z,352.23
2022-10-03T02:33:54.170Z,352.60
2022-10-03T02:36:48.166Z,348.80
2022-10-03T02:39:39.085Z,347.52
2022-10-03T02:42:41.517Z,332.67
2022-10-03T02:45:32.930Z,340.27
2022-10-03T02:48:38.560Z,348.20
2022-10-03T02:51:18.031Z,343.73
2022-10-03T02:53:48.409Z,332.38
2022-10-03T02:56:30.004Z,353.27
2022-10-03T02:59:21.514Z,346.87
2022-10-03T03:01:51.174Z,348.33
2022-10-03T03:04:29.903Z,358.63
2022-10-03T03:07:16.645Z,372.10
2022-10-03T03:10:03.440Z,357.27
2022-10-03T03:13:01.003Z,376.50
2022-10-03T03:16:09.023Z,360.05
2022-10-03T03:18:58.849Z,367.83
2022-10-03T03:21:50.312Z,357.67
2022-10-03T03:24:33.347Z,364.90
2022-10-03T03:27:18.200Z,364.70
2022-10-03T03:30:03.075Z,357.10
2022-10-03T03:32:47.271Z,367.08
2022-10-03T03:35:48.253Z,351.33
2022-10-03T03:38:52.073Z,367.42
2022-10-03T03:41:18.618Z,359.23
2022-10-03T03:43:56.696Z,347.45
2022-10-03T03:46:38.670Z,353.73
2022-10-03T03:49:16.568Z,360.73
2022-10-03T03:51:57.930Z,356.15
2022-10-03T03:54:38.009Z,360.23
2022-10-03T03:57:35.540Z,346.00
2022-10-03T04:00:08.088Z,355.95
2022-10-03T04:02:38.376Z,345.48
2022-10-03T04:05:08.424Z,331.27
2022-10-03T04:07:50.415Z,333.77
2022-10-03T04:10:42.294Z,328.77
2022-10-03T04:13:29.053Z,328.50
2022-10-03T04:16:43.425Z,342.63
2022-10-03T04:19:31.844Z,333.58
2022-10-03T04:22:26.904Z,326.27
2022-10-03T04:25:05.453Z,336.20
2022-10-03T04:28:10.873Z,320.10
2022-10-03T04:30:57.886Z,331.40
2022-10-03T04:33:43.284Z,327.27
2022-10-03T04:36:18.832Z,327.05
2022-10-03T04:39:06.963Z,308.73
2022-10-03T04:41:43.266Z,319.25
2022-10-03T04:44:28.747Z,328.90
2022-10-03T04:47:02.816Z,318.90
2022-10-03T04:49:56.273Z,326.20
2022-10-03T04:52:39.457Z,321.52
2022-10-03T04:55:32.681Z,315.95
2022-10-03T04:58:22.925Z,322.85
2022-10-03T05:01:15.558Z,345.02
2022-10-03T05:03:43.455Z,321.25
2022-10-03T05:06:19.464Z,308.17
2022-10-03T05:09:01.564Z,317.50
2022-10-03T05:11:43.370Z,314.67
2022-10-03T05:14:12.625Z,312.70
2022-10-03T05:16:43.037Z,306.52
2022-10-03T05:19:29.548Z,305.35
2022-10-03T05:22:19.376Z,328.83
2022-10-03T05:25:16.032Z,330.55
2022-10-03T05:27:59.151Z,328.58
2022-10-03T05:30:53.359Z,328.47
2022-10-03T05:33:39.540Z,324.73
2022-10-03T05:36:34.833Z,325.80
2022-10-03T05:39:19.752Z,316.48
2022-10-03T05:42:17.784Z,328.45
2022-10-03T05:44:45.424Z,333.30
2022-10-03T05:47:46.311Z,342.35
2022-10-03T05:50:27.734Z,323.90
2022-10-03T05:53:10.843Z,338.23
2022-10-03T05:55:49.425Z,325.80
2022-10-03T05:58:20.136Z,320.87
2022-10-03T06:01:08.690Z,313.33
2022-10-03T06:03:59.329Z,322.00
2022-10-03T06:06:46.780Z,307.63
2022-10-03T06:09:40.508Z,315.40
2022-10-03T06:12:22.386Z,314.00
2022-10-03T06:15:03.211Z,315.67
2022-10-03T06:17:45.251Z,288.63
2022-10-03T06:20:48.957Z,298.98
2022-10-03T06:23:42.378Z,305.17
2022-10-03T06:26:27.009Z,302.08
2022-10-03T06:29:15.433Z,305.20
2022-10-03T06:32:01.024Z,291.52
2022-10-03T06:34:39.509Z,287.83
2022-10-03T06:37:53.745Z,301.83
2022-10-03T06:40:32.303Z,307.57
2022-10-03T06:43:11.362Z,289.63
2022-10-03T06:45:52.951Z,300.63
2022-10-03T06:48:36.252Z,294.13
2022-10-03T06:51:40.630Z,297.27
2022-10-03T06:54:29.238Z,308.92
2022-10-03T06:57:23.562Z,292.80
2022-10-03T07:00:06.616Z,288.67
2022-10-03T07:03:18.966Z,314.13
2022-10-03T07:05:48.093Z,308.02
2022-10-03T07:08:30.268Z,302.75
2022-10-03T07:11:26.802Z,293.08
2022-10-03T07:14:38.813Z,303.70
2022-10-03T07:17:28.202Z,282.92
2022-10-03T07:20:08.518Z,278.33
2022-10-03T07:22:59.025Z,270.13
2022-10-03T07:25:33.145Z,275.50
2022-10-03T07:28:17.949Z,262.40
2022-10-03T07:30:59.688Z,243.20
2022-10-03T07:33:52.864Z,265.08
2022-10-03T07:37:11.557Z,257.10
2022-10-03T07:39:45.349Z,256.80
2022-10-03T07:42:46.945Z,254.38
2022-10-03T07:45:30.310Z,264.23
2022-10-03T07:48:21.339Z,271.58
2022-10-03T07:51:02.968Z,270.87
2022-10-03T07:54:01.255Z,269.42
2022-10-03T07:56:45.766Z,264.58
2022-10-03T07:59:12.290Z,268.30
2022-10-03T08:01:47.807Z,264.08
2022-10-03T08:04:39.018Z,254.30
2022-10-03T08:07:09.264Z,239.45
2022-10-03T08:09:55.270Z,225.80
2022-10-03T08:12:44.172Z,231.33
2022-10-03T08:15:22.601Z,226.63
2022-10-03T08:17:58.243Z,231.35
2022-10-03T08:20:49.083Z,221.60
2022-10-03T08:23:54.027Z,230.50
2022-10-03T08:26:50.114Z,226.35
2022-10-03T08:29:38.129Z,226.10
2022-10-03T08:32:41.848Z,252.93
2022-10-03T08:35:37.481Z,186.13
2022-10-03T08:38:24.978Z,187.65
2022-10-03T08:41:15.690Z,204.40
2022-10-03T08:44:19.866Z,211.88
2022-10-03T08:46:52.585Z,222.52
2022-10-03T08:49:51.773Z,226.77
2022-10-03T08:52:28.076Z,214.88
2022-10-03T08:55:06.159Z,206.55
2022-10-03T08:57:57.273Z,197.18
2022-10-03T09:00:52.799Z,198.55
2022-10-03T09:03:40.521Z,191.95
2022-10-03T09:06:31.009Z,192.60
2022-10-03T09:09:00.407Z,186.48
2022-10-03T09:11:49.621Z,173.13
2022-10-03T09:14:21.988Z,159.30
2022-10-03T09:17:09.908Z,155.65
2022-10-03T09:20:04.344Z,149.65
2022-10-03T09:22:55.980Z,149.43
2022-10-03T09:25:58.054Z,147.98
2022-10-03T09:28:32.073Z,140.65
2022-10-03T09:31:19.300Z,138.90
2022-10-03T09:33:51.801Z,121.97
2022-10-03T09:36:27.486Z,120.32
2022-10-03T09:39:12.863Z,109.13
2022-10-03T09:42:01.944Z,126.45
2022-10-03T09:44:53.099Z,106.57
2022-10-03T09:47:42.901Z,112.97
2022-10-03T09:50:28.645Z,117.35
2022-10-03T09:53:24.687Z,126.00
2022-10-03T09:56:09.679Z,139.07
2022-10-03T09:58:44.954Z,140.07
2022-10-03T10:01:29.537Z,136.25
2022-10-03T10:04:53.634Z,128.85
2022-10-03T10:07:48.318Z,128.98
2022-10-03T10:10:18.371Z,125.82
2022-10-03T10:12:59.916Z,132.03
2022-10-03T10:15:47.461Z,120.07
2022-10-03T10:18:29.314Z,114.75
2022-10-03T10:21:16.356Z,105.70
2022-10-03T10:24:07.515Z,102.47
2022-10-03T10:27:17.656Z,105.05
2022-10-03T10:30:22.023Z,126.60
2022-10-03T10:33:27.297Z,131.18
2022-10-03T10:35:53.865Z,121.28
2022-10-03T10:38:30.648Z,115.55
2022-10-03T10:41:12.712Z,139.68
2022-10-03T10:43:58.238Z,134.68
2022-10-03T10:46:42.352Z,122.80
2022-10-03T10:49:15.139Z,144.45
2022-10-03T10:52:03.330Z,131.83
2022-10-03T10:54:49.074Z,117.15
2022-10-03T10:57:24.137Z,115.45
2022-10-03T11:00:21.809Z,113.40
2022-10-03T11:03:26.036Z,115.25
2022-10-03T11:06:11.550Z,104.47
2022-10-03T11:08:56.843Z,106.90
2022-10-03T11:12:01.530Z,98.68
2022-10-03T11:14:35.391Z,92.72
2022-10-03T11:17:04.620Z,87.93
2022-10-03T11:19:49.774Z,75.28
2022-10-03T11:22:41.380Z,85.78
2022-10-03T11:25:47.977Z,102.75
2022-10-03T11:28:42.951Z,77.32
2022-10-03T11:31:46.480Z,83.38
2022-10-03T11:34:48.060Z,100.05
2022-10-03T11:37:33.208Z,124.53
2022-10-03T11:40:47.401Z,127.88
2022-10-03T11:43:34.903Z,133.45
2022-10-03T11:46:13.681Z,144.25
2022-10-03T11:48:52.016Z,144.05
2022-10-03T11:51:43.660Z,138.30
2022-10-03T11:54:32.420Z,149.02
2022-10-03T11:57:08.691Z,159.33
2022-10-03T11:59:44.750Z,165.40
2022-10-03T12:02:16.434Z,180.20
2022-10-03T12:04:59.798Z,173.45
2022-10-03T12:08:22.905Z,176.85
2022-10-03T12:11:14.154Z,166.30
2022-10-03T12:14:10.925Z,160.75
2022-10-03T12:16:44.592Z,132.68
2022-10-03T12:19:30.936Z,126.13
2022-10-03T12:22:07.389Z,135.85
2022-10-03T12:24:37.711Z,126.20
2022-10-03T12:27:10.019Z,101.85
2022-10-03T12:29:45.919Z,97.33
2022-10-03T12:32:40.074Z,113.67
2022-10-03T12:35:44.214Z,117.63
2022-10-03T12:38:29.617Z,121.32
2022-10-03T12:41:05.393Z,122.07
2022-10-03T12:43:43.885Z,114.90
2022-10-03T12:46:45.757Z,105.75
2022-10-03T12:49:17.872Z,86.00
2022-10-03T12:52:01.089Z,67.07
2022-10-03T12:54:53.343Z,53.10
2022-10-03T12:57:47.846Z,78.97
2022-10-03T13:00:24.096Z,105.28
2022-10-03T13:02:58.220Z,88.57
2022-10-03T13:05:40.579Z,87.63
2022-10-03T13:08:37.428Z,88.38
2022-10-03T13:11:35.647Z,47.38
2022-10-03T13:14:28.220Z,23.00
2022-10-03T13:17:09.881Z,4.00
2022-10-03T13:19:55.330Z,3.88
2022-10-03T13:22:29.158Z,3.63
2022-10-03T13:25:02.184Z,3.75
2022-10-03T13:27:40.721Z,4.60
2022-10-03T13:30:16.653Z,4.25
2022-10-03T13:32:49.728Z,5.40
2022-10-03T13:35:58.222Z,5.63
2022-10-03T13:38:49.059Z,5.85
2022-10-03T13:41:42.234Z,4.78
2022-10-03T13:44:24.069Z,3.50
2022-10-03T13:46:57.160Z,3.17
2022-10-03T13:49:34.530Z,3.40
2022-10-03T13:52:16.446Z,6.88
2022-10-03T13:55:00.939Z,9.77
2022-10-03T13:57:35.657Z,6.88
2022-10-03T14:00:12.883Z,4.28
2022-10-03T14:03:21.441Z,5.15
2022-10-03T14:06:15.095Z,9.48
2022-10-03T14:09:16.573Z,8.30
2022-10-03T14:11:50.245Z,11.82
2022-10-03T14:14:41.906Z,11.52
2022-10-03T14:17:20.602Z,9.35
2022-10-03T14:20:06.359Z,10.40
2022-10-03T14:22:42.224Z,4.78
2022-10-03T14:25:22.516Z,6.85
2022-10-03T14:27:54.391Z,6.30
2022-10-03T14:31:05.114Z,3.05
2022-10-03T14:33:38.785Z,3.10
2022-10-03T14:36:29.386Z,3.67
2022-10-03T14:39:22.825Z,7.75
2022-10-03T14:41:52.507Z,10.65
2022-10-03T14:44:22.825Z,14.38
2022-10-03T14:47:10.305Z,12.18
2022-10-03T14:49:54.862Z,11.00
2022-10-03T14:52:42.807Z,13.98
2022-10-03T14:55:18.969Z,9.20
2022-10-03T14:58:11.434Z,5.18
2022-10-03T15:01:13.477Z,4.05
2022-10-03T15:04:07.848Z,8.70
2022-10-03T15:06:46.257Z,9.57
2022-10-03T15:09:25.174Z,13.07
2022-10-03T15:12:22.367Z,19.02
2022-10-03T15:15:01.589Z,32.28
2022-10-03T15:17:31.675Z,32.78
2022-10-03T15:20:01.402Z,29.55
2022-10-03T15:22:37.793Z,35.63
2022-10-03T15:25:18.512Z,29.00
2022-10-03T15:27:54.112Z,25.17
2022-10-03T15:30:33.805Z,24.30
2022-10-03T15:33:15.538Z,28.73
2022-10-03T15:35:48.337Z,37.25
2022-10-03T15:38:18.320Z,32.10
2022-10-03T15:41:13.485Z,27.35
2022-10-03T15:44:00.721Z,42.57
2022-10-03T15:46:43.387Z,32.70
2022-10-03T15:49:24.693Z,21.95
2022-10-03T15:51:53.100Z,22.42
2022-10-03T15:54:26.353Z,28.17
2022-10-03T15:57:03.382Z,20.50
2022-10-03T15:59:37.057Z,21.58
2022-10-03T16:02:19.132Z,24.60
2022-10-03T16:04:47.841Z,27.50
2022-10-03T16:07:46.110Z,19.23
2022-10-03T16:10:14.677Z,30.33
2022-10-03T16:12:56.452Z,25.50
2022-10-03T16:15:49.308Z,28.98
2022-10-03T16:18:18.875Z,30.87
2022-10-03T16:20:56.753Z,37.83
2022-10-03T16:23:37.743Z,42.25
2022-10-03T16:26:12.957Z,45.30
2022-10-03T16:28:50.653Z,52.47
2022-10-03T16:31:30.187Z,56.17
2022-10-03T16:34:06.765Z,65.47
2022-10-03T16:36:42.781Z,79.68
2022-10-03T16:39:25.088Z,88.97
2022-10-03T16:41:56.898Z,107.05
2022-10-03T16:44:42.418Z,122.60
2022-10-03T16:47:09.904Z,133.63
2022-10-03T16:50:13.592Z,137.30
2022-10-03T16:52:56.797Z,165.02
2022-10-03T16:55:39.060Z,179.10
2022-10-03T16:58:10.610Z,186.18
2022-10-03T17:01:26.240Z,191.43
2022-10-03T17:03:59.935Z,191.02
2022-10-03T17:06:33.189Z,209.98
2022-10-03T17:09:07.754Z,213.75
2022-10-03T17:11:38.374Z,214.68
2022-10-03T17:14:08.583Z,207.23
2022-10-03T17:16:47.583Z,204.75
2022-10-03T17:19:27.001Z,208.55
2022-10-03T17:22:00.419Z,222.98
2022-10-03T17:24:45.306Z,222.65
2022-10-03T17:27:36.659Z,239.23
2022-10-03T17:30:25.028Z,217.93
2022-10-03T17:33:03.653Z,225.30
2022-10-03T17:35:52.506Z,220.23
2022-10-03T17:38:49.467Z,229.52
2022-10-03T17:41:24.448Z,251.27
2022-10-03T17:44:12.101Z,249.88
2022-10-03T17:46:51.577Z,252.93
2022-10-03T17:49:23.773Z,254.70
2022-10-03T17:51:52.948Z,234.10
2022-10-03T17:54:29.653Z,250.45
2022-10-03T17:57:38.518Z,254.95
2022-10-03T18:00:18.994Z,236.30
2022-10-03T18:03:01.476Z,225.60
2022-10-03T18:05:38.997Z,236.20
2022-10-03T18:08:14.231Z,251.45
2022-10-03T18:10:49.236Z,239.93
2022-10-03T18:13:24.661Z,243.50
2022-10-03T18:16:21.099Z,245.63
2022-10-03T18:18:47.736Z,239.82
2022-10-03T18:21:17.515Z,231.23
2022-10-03T18:24:21.678Z,238.03
2022-10-03T18:27:11.651Z,236.10
2022-10-03T18:30:02.159Z,246.63
2022-10-03T18:32:32.554Z,247.43
2022-10-03T18:35:22.238Z,249.13
2022-10-03T18:38:08.211Z,258.60
2022-10-03T18:40:44.889Z,252.52
2022-10-03T18:43:49.279Z,256.63
2022-10-03T18:46:42.683Z,267.85
2022-10-03T18:49:36.021Z,257.10
2022-10-03T18:52:25.417Z,260.77
2022-10-03T18:55:03.745Z,262.97
2022-10-03T18:57:54.248Z,272.63
2022-10-03T19:00:26.572Z,254.23
2022-10-03T19:02:58.998Z,263.13
2022-10-03T19:05:33.288Z,249.38
2022-10-03T19:08:10.253Z,264.55
2022-10-03T19:10:50.855Z,252.67
2022-10-03T19:13:45.591Z,261.58
2022-10-03T19:16:30.794Z,261.63
2022-10-03T19:19:12.383Z,271.53
2022-10-03T19:21:41.712Z,266.70
2022-10-03T19:24:53.347Z,264.52
2022-10-03T19:27:38.962Z,279.60
2022-10-03T19:30:09.423Z,262.23
2022-10-03T19:32:53.929Z,274.48
2022-10-03T19:35:23.013Z,283.92
2022-10-03T19:37:57.394Z,281.60
2022-10-03T19:40:33.007Z,282.27
2022-10-03T19:43:32.081Z,276.10
2022-10-03T19:46:36.050Z,283.17
2022-10-03T19:49:05.721Z,302.38
2022-10-03T19:51:35.276Z,292.33
2022-10-03T19:54:11.433Z,300.58
2022-10-03T19:56:38.284Z,291.45
2022-10-03T19:59:12.622Z,284.25
2022-10-03T20:01:47.397Z,291.73
2022-10-03T20:04:18.977Z,288.27
2022-10-03T20:06:49.872Z,286.75
2022-10-03T20:10:00.994Z,293.30
2022-10-03T20:12:31.337Z,288.95
2022-10-03T20:15:05.476Z,290.45
2022-10-03T20:17:33.141Z,291.55
2022-10-03T20:20:07.839Z,297.88
2022-10-03T20:22:41.793Z,289.30
2022-10-03T20:25:26.469Z,297.25
2022-10-03T20:28:00.938Z,308.23
2022-10-03T20:30:39.961Z,310.48
2022-10-03T20:33:10.246Z,314.23
2022-10-03T20:35:45.997Z,302.42
2022-10-03T20:38:28.539Z,300.08
2022-10-03T20:41:15.540Z,322.35
2022-10-03T20:44:23.726Z,307.10
2022-10-03T20:46:57.768Z,308.43
2022-10-03T20:49:37.081Z,312.58
2022-10-03T20:52:07.403Z,315.40
2022-10-03T20:54:54.303Z,304.40
2022-10-03T20:57:26.974Z,285.40
2022-10-03T21:00:11.611Z,305.85
2022-10-03T21:02:38.160Z,289.87
2022-10-03T21:05:11.163Z,309.70
2022-10-03T21:07:43.562Z,304.40
2022-10-03T21:10:32.976Z,331.60
2022-10-03T21:13:08.892Z,323.92
2022-10-03T21:16:16.068Z,317.80
2022-10-03T21:18:47.614Z,339.10
2022-10-03T21:21:27.856Z,331.13
2022-10-03T21:24:12.975Z,342.27
2022-10-03T21:26:47.663Z,345.80
2022-10-03T21:29:15.806Z,348.30
2022-10-03T21:32:05.477Z,349.17
2022-10-03T21:34:45.234Z,349.65
2022-10-03T21:37:16.888Z,334.48
2022-10-03T21:39:56.652Z,345.50
2022-10-03T21:42:40.790Z,362.08
2022-10-03T21:45:22.218Z,348.60
2022-10-03T21:48:01.313Z,347.05
2022-10-03T21:50:31.794Z,363.30
2022-10-03T21:53:18.708Z,351.58
2022-10-03T21:55:53.031Z,367.48
2022-10-03T21:58:38.961Z,371.23
2022-10-03T22:01:29.869Z,356.42
2022-10-03T22:04:11.342Z,337.83
2022-10-03T22:07:35.903Z,345.80
2022-10-03T22:10:03.676Z,341.85
2022-10-03T22:12:40.440Z,342.83
2022-10-03T22:15:19.720Z,356.47
2022-10-03T22:17:57.840Z,358.20
2022-10-03T22:20:32.944Z,358.58
2022-10-03T22:23:14.014Z,349.80
2022-10-03T22:26:02.672Z,351.98
2022-10-03T22:28:52.249Z,364.65
2022-10-03T22:31:51.412Z,362.93
2022-10-03T22:34:42.918Z,360.50
2022-10-03T22:37:10.007Z,360.40
2022-10-03T22:39:37.083Z,356.83
2022-10-03T22:42:04.642Z,358.40
2022-10-03T22:44:35.038Z,370.25
2022-10-03T22:47:11.099Z,376.33
2022-10-03T22:49:45.110Z,370.98
2022-10-03T22:52:21.305Z,375.17
2022-10-03T22:54:49.697Z,366.70
2022-10-03T22:57:17.083Z,369.45
2022-10-03T22:59:51.929Z,364.67
2022-10-03T23:02:25.589Z,370.65
2022-10-03T23:04:57.503Z,372.80
2022-10-03T23:07:56.200Z,371.92
2022-10-03T23:10:25.435Z,374.42
2022-10-03T23:13:04.398Z,357.70
2022-10-03T23:15:34.263Z,362.40
2022-10-03T23:18:39.057Z,364.20
2022-10-03T23:21:08.775Z,361.63
2022-10-03T23:24:20.474Z,374.73
2022-10-03T23:27:24.579Z,369.27
2022-10-03T23:30:12.962Z,364.48
2022-10-03T23:32:48.556Z,370.77
2022-10-03T23:35:17.769Z,370.30
2022-10-03T23:37:48.926Z,370.42
2022-10-03T23:40:20.608Z,365.63
2022-10-03T23:42:59.506Z,369.50
2022-10-03T23:45:29.648Z,369.40
2022-10-03T23:48:07.401Z,362.35
2022-10-03T23:50:42.862Z,361.23
2022-10-03T23:53:32.171Z,373.95
2022-10-03T23:56:02.545Z,355.88
2022-10-03T23:58:32.515Z,353.50
